createdAt,value
2023-05-15T00:00:00.412Z,0.00
2023-05-15T00:01:00.400Z,0.00
2023-05-15T00:02:00.363Z,0.00
2023-05-15T00:03:00.473Z,0.00
2023-05-15T00:04:00.323Z,0.00
2023-05-15T00:05:00.479Z,0.00
2023-05-15T00:06:00.297Z,0.00
2023-05-15T00:07:00.334Z,0.00
2023-05-15T00:08:00.302Z,0.00
2023-05-15T00:09:00.288Z,0.00
2023-05-15T00:10:00.258Z,0.00
2023-05-15T00:11:01.926Z,0.00
2023-05-15T00:12:00.254Z,0.00
2023-05-15T00:13:00.309Z,0.00
2023-05-15T00:14:00.212Z,0.00
2023-05-15T00:15:00.233Z,0.00
2023-05-15T00:16:00.250Z,0.00
2023-05-15T00:17:00.240Z,0.00
2023-05-15T00:18:00.223Z,0.00
2023-05-15T00:19:00.284Z,0.00
2023-05-15T00:20:00.182Z,0.00
2023-05-15T00:21:00.180Z,0.00
2023-05-15T00:22:00.155Z,0.00
2023-05-15T00:23:00.148Z,0.00
2023-05-15T00:24:00.108Z,0.00
2023-05-15T00:25:00.172Z,0.00
2023-05-15T00:26:00.142Z,0.00
2023-05-15T00:27:00.129Z,0.00
2023-05-15T00:28:00.111Z,0.00
2023-05-15T00:29:00.052Z,0.00
2023-05-15T00:30:00.112Z,0.00
2023-05-15T00:31:00.100Z,0.00
2023-05-15T00:32:00.105Z,0.00
2023-05-15T00:33:00.087Z,0.00
2023-05-15T00:34:00.009Z,0.00
2023-05-15T00:35:00.043Z,0.00
2023-05-15T00:35:59.980Z,0.00
2023-05-15T00:37:00.016Z,0.00
2023-05-15T00:37:59.968Z,0.00
2023-05-15T00:38:59.952Z,0.00
2023-05-15T00:39:59.961Z,0.00
2023-05-15T00:40:59.955Z,0.00
2023-05-15T00:42:01.955Z,0.00
2023-05-15T00:42:59.919Z,0.00
2023-05-15T00:43:59.922Z,0.00
2023-05-15T00:44:59.903Z,0.00
2023-05-15T00:45:59.914Z,0.00
2023-05-15T00:46:59.914Z,0.00
2023-05-15T00:47:59.892Z,0.00
2023-05-15T00:48:59.861Z,0.00
2023-05-15T00:49:59.844Z,0.00
2023-05-15T00:50:59.850Z,0.00
2023-05-15T00:51:59.848Z,0.00
2023-05-15T00:52:59.808Z,0.00
2023-05-15T00:53:59.861Z,0.00
2023-05-15T00:54:59.786Z,0.00
2023-05-15T00:55:59.780Z,0.00
2023-05-15T00:56:59.800Z,0.00
2023-05-15T00:57:59.773Z,0.00
2023-05-15T00:58:59.796Z,0.00
2023-05-15T00:59:59.735Z,0.00
2023-05-15T01:00:59.762Z,0.00
2023-05-15T01:01:59.750Z,0.00
2023-05-15T01:02:59.983Z,0.00
2023-05-15T01:03:59.728Z,0.00
2023-05-15T01:04:59.697Z,0.00
2023-05-15T01:05:59.670Z,0.00
2023-05-15T01:06:59.670Z,0.00
2023-05-15T01:07:59.661Z,0.00
2023-05-15T01:08:59.656Z,0.00
2023-05-15T01:09:59.649Z,0.00
2023-05-15T01:10:59.614Z,0.00
2023-05-15T01:11:59.617Z,0.00
2023-05-15T01:12:59.617Z,0.00
2023-05-15T01:13:59.599Z,0.00
2023-05-15T01:14:59.563Z,0.00
2023-05-15T01:15:59.551Z,0.00
2023-05-15T01:16:59.569Z,0.00
2023-05-15T01:17:59.611Z,0.00
2023-05-15T01:18:59.636Z,0.00
2023-05-15T01:19:59.569Z,0.00
2023-05-15T01:20:59.537Z,0.00
2023-05-15T01:21:59.530Z,0.00
2023-05-15T01:22:59.496Z,0.00
2023-05-15T01:23:59.466Z,0.00
2023-05-15T01:24:59.493Z,0.00
2023-05-15T01:25:59.478Z,0.00
2023-05-15T01:26:59.481Z,0.00
2023-05-15T01:27:59.420Z,0.00
2023-05-15T01:28:59.439Z,0.00
2023-05-15T01:29:59.432Z,0.00
2023-05-15T01:30:59.413Z,0.00
2023-05-15T01:31:59.457Z,0.00
2023-05-15T01:32:59.477Z,0.00
2023-05-15T01:33:59.371Z,0.00
2023-05-15T01:34:59.374Z,0.00
2023-05-15T01:35:59.376Z,0.00
2023-05-15T01:36:59.343Z,0.00
2023-05-15T01:37:59.342Z,0.00
2023-05-15T01:38:59.308Z,0.00
2023-05-15T01:39:59.326Z,0.00
2023-05-15T01:40:59.313Z,0.00
2023-05-15T01:41:59.296Z,0.00
2023-05-15T01:42:59.297Z,0.00
2023-05-15T01:43:59.297Z,0.00
2023-05-15T01:44:59.293Z,0.00
2023-05-15T01:45:59.270Z,0.00
2023-05-15T01:46:59.299Z,0.00
2023-05-15T01:47:59.280Z,0.00
2023-05-15T01:48:59.216Z,0.00
2023-05-15T01:49:59.218Z,0.00
2023-05-15T01:50:59.199Z,0.00
2023-05-15T01:51:59.178Z,0.00
2023-05-15T01:52:59.236Z,0.00
2023-05-15T01:53:59.185Z,0.00
2023-05-15T01:54:59.241Z,0.00
2023-05-15T01:55:59.124Z,0.00
2023-05-15T01:56:59.119Z,0.00
2023-05-15T01:57:59.140Z,0.00
2023-05-15T01:58:59.111Z,0.00
2023-05-15T01:59:59.083Z,0.00
2023-05-15T02:00:59.085Z,0.00
2023-05-15T02:01:59.124Z,0.00
2023-05-15T02:02:59.164Z,0.00
2023-05-15T02:03:59.101Z,0.00
2023-05-15T02:04:59.113Z,0.00
2023-05-15T02:05:59.014Z,0.00
2023-05-15T02:06:59.042Z,0.00
2023-05-15T02:07:59.034Z,0.00
2023-05-15T02:08:59.012Z,0.00
2023-05-15T02:09:58.995Z,0.00
2023-05-15T02:10:59.007Z,0.00
2023-05-15T02:11:58.959Z,0.00
2023-05-15T02:12:58.978Z,0.00
2023-05-15T02:13:58.962Z,0.00
2023-05-15T02:14:58.946Z,0.00
2023-05-15T02:15:58.961Z,0.00
2023-05-15T02:16:58.957Z,0.00
2023-05-15T02:17:58.927Z,0.00
2023-05-15T02:18:58.929Z,0.00
2023-05-15T02:19:58.900Z,0.00
2023-05-15T02:20:58.882Z,0.00
2023-05-15T02:21:58.896Z,0.00
2023-05-15T02:22:58.865Z,0.00
2023-05-15T02:23:58.838Z,0.00
2023-05-15T02:24:58.828Z,0.00
2023-05-15T02:25:58.809Z,0.00
2023-05-15T02:26:58.824Z,0.00
2023-05-15T02:27:58.809Z,0.00
2023-05-15T02:28:58.780Z,0.00
2023-05-15T02:29:58.769Z,0.00
2023-05-15T02:30:58.825Z,0.00
2023-05-15T02:31:58.773Z,0.00
2023-05-15T02:32:58.804Z,0.00
2023-05-15T02:33:58.738Z,0.00
2023-05-15T02:34:58.722Z,0.00
2023-05-15T02:35:58.718Z,0.00
2023-05-15T02:36:58.833Z,0.00
2023-05-15T02:37:58.680Z,0.00
2023-05-15T02:38:58.674Z,0.00
2023-05-15T02:39:58.698Z,0.00
2023-05-15T02:40:58.689Z,0.00
2023-05-15T02:41:59.007Z,0.00
2023-05-15T02:42:58.590Z,1.00
2023-05-15T02:43:58.589Z,1.00
2023-05-15T02:44:58.656Z,0.00
2023-05-15T02:45:58.685Z,0.00
2023-05-15T02:46:58.595Z,0.00
2023-05-15T02:47:58.677Z,0.00
2023-05-15T02:48:58.540Z,1.00
2023-05-15T02:49:58.553Z,0.00
2023-05-15T02:50:58.546Z,0.00
2023-05-15T02:51:58.530Z,0.00
2023-05-15T02:52:58.532Z,0.00
2023-05-15T02:53:58.481Z,5.00
2023-05-15T02:54:58.449Z,4.00
2023-05-15T02:55:58.453Z,5.00
2023-05-15T02:56:58.429Z,2.00
2023-05-15T02:57:58.443Z,2.00
2023-05-15T02:58:58.407Z,2.00
2023-05-15T02:59:58.449Z,2.00
2023-05-15T03:00:58.400Z,3.00
2023-05-15T03:01:58.375Z,4.00
2023-05-15T03:02:58.461Z,8.00
2023-05-15T03:03:58.397Z,7.00
2023-05-15T03:04:58.362Z,7.00
2023-05-15T03:05:58.321Z,9.00
2023-05-15T03:06:58.351Z,9.00
2023-05-15T03:07:58.326Z,8.00
2023-05-15T03:08:58.309Z,8.00
2023-05-15T03:09:58.332Z,12.00
2023-05-15T03:10:58.440Z,13.00
2023-05-15T03:11:58.260Z,16.00
2023-05-15T03:12:58.361Z,13.00
2023-05-15T03:13:58.283Z,12.00
2023-05-15T03:14:58.236Z,19.00
2023-05-15T03:15:58.249Z,22.00
2023-05-15T03:16:58.236Z,25.00
2023-05-15T03:17:58.243Z,23.00
2023-05-15T03:18:58.230Z,26.00
2023-05-15T03:19:58.195Z,26.00
2023-05-15T03:20:58.170Z,27.00
2023-05-15T03:21:58.163Z,30.00
2023-05-15T03:22:58.217Z,34.00
2023-05-15T03:23:58.143Z,35.00
2023-05-15T03:24:58.157Z,32.00
2023-05-15T03:25:58.132Z,34.00
2023-05-15T03:26:58.130Z,39.00
2023-05-15T03:27:58.144Z,43.00
2023-05-15T03:28:58.082Z,49.00
2023-05-15T03:29:58.094Z,45.00
2023-05-15T03:30:58.092Z,52.00
2023-05-15T03:31:58.154Z,56.00
2023-05-15T03:32:58.125Z,60.00
2023-05-15T03:33:58.092Z,58.00
2023-05-15T03:34:58.018Z,61.00
2023-05-15T03:35:58.022Z,63.00
2023-05-15T03:36:58.026Z,67.00
2023-05-15T03:37:58.019Z,71.00
2023-05-15T03:38:57.980Z,70.00
2023-05-15T03:39:57.968Z,80.00
2023-05-15T03:40:57.987Z,83.00
2023-05-15T03:41:57.972Z,85.00
2023-05-15T03:42:57.936Z,86.00
2023-05-15T03:43:57.925Z,85.00
2023-05-15T03:44:57.909Z,89.00
2023-05-15T03:45:57.955Z,95.00
2023-05-15T03:46:57.987Z,92.00
2023-05-15T03:47:57.928Z,91.00
2023-05-15T03:48:57.871Z,99.00
2023-05-15T03:49:57.880Z,100.00
2023-05-15T03:50:57.849Z,99.00
2023-05-15T03:51:57.848Z,111.00
2023-05-15T03:52:57.831Z,117.00
2023-05-15T03:53:57.812Z,121.00
2023-05-15T03:54:57.816Z,124.00
2023-05-15T03:55:57.814Z,125.00
2023-05-15T03:56:57.797Z,127.00
2023-05-15T03:57:57.791Z,127.00
2023-05-15T03:58:57.757Z,134.00
2023-05-15T03:59:57.769Z,135.00
2023-05-15T04:00:57.779Z,139.00
2023-05-15T04:02:57.757Z,140.00
2023-05-15T04:03:57.737Z,137.00
2023-05-15T04:04:57.779Z,135.00
2023-05-15T04:05:57.708Z,135.00
2023-05-15T04:06:57.685Z,144.00
2023-05-15T04:07:57.704Z,146.00
2023-05-15T04:08:57.686Z,145.00
2023-05-15T04:09:57.672Z,142.00
2023-05-15T04:10:57.629Z,145.00
2023-05-15T04:11:57.639Z,119.00
2023-05-15T04:12:57.631Z,145.00
2023-05-15T04:13:57.635Z,191.00
2023-05-15T04:14:57.616Z,179.00
2023-05-15T04:15:57.633Z,184.00
2023-05-15T04:16:57.581Z,201.00
2023-05-15T04:17:57.644Z,223.00
2023-05-15T04:18:57.638Z,238.00
2023-05-15T04:19:57.541Z,252.00
2023-05-15T04:20:57.554Z,250.00
2023-05-15T04:21:57.511Z,245.00
2023-05-15T04:22:57.560Z,241.00
2023-05-15T04:23:57.526Z,258.00
2023-05-15T04:24:57.508Z,256.00
2023-05-15T04:25:57.488Z,262.00
2023-05-15T04:26:57.604Z,262.00
2023-05-15T04:27:57.529Z,256.00
2023-05-15T04:29:04.174Z,250.00
2023-05-15T04:29:57.446Z,225.00
2023-05-15T04:30:57.444Z,267.00
2023-05-15T04:31:57.453Z,118.00
2023-05-15T04:32:57.464Z,151.00
2023-05-15T04:33:57.668Z,177.00
2023-05-15T04:34:57.377Z,538.00
2023-05-15T04:35:57.388Z,271.00
2023-05-15T04:36:57.414Z,242.00
2023-05-15T04:37:57.379Z,243.00
2023-05-15T04:38:57.351Z,241.00
2023-05-15T04:39:57.339Z,238.00
2023-05-15T04:40:57.368Z,123.00
2023-05-15T04:41:57.324Z,222.00
2023-05-15T04:42:57.332Z,340.00
2023-05-15T04:43:57.282Z,228.00
2023-05-15T04:44:57.286Z,257.00
2023-05-15T04:45:57.301Z,245.00
2023-05-15T04:46:57.264Z,241.00
2023-05-15T04:47:57.288Z,181.00
2023-05-15T04:48:57.234Z,169.00
2023-05-15T04:49:57.255Z,238.00
2023-05-15T04:50:57.233Z,321.00
2023-05-15T04:51:57.245Z,334.00
2023-05-15T04:52:57.223Z,348.00
2023-05-15T04:53:57.188Z,357.00
2023-05-15T04:54:57.223Z,366.00
2023-05-15T04:55:57.200Z,372.00
2023-05-15T04:56:57.168Z,378.00
2023-05-15T04:57:57.146Z,381.00
2023-05-15T04:58:57.133Z,459.00
2023-05-15T04:59:57.130Z,335.00
2023-05-15T05:00:57.122Z,359.00
2023-05-15T05:01:57.187Z,398.00
2023-05-15T05:02:57.157Z,409.00
2023-05-15T05:03:57.126Z,417.00
2023-05-15T05:04:57.092Z,424.00
2023-05-15T05:05:57.067Z,433.00
2023-05-15T05:06:57.036Z,441.00
2023-05-15T05:07:57.049Z,445.00
2023-05-15T05:08:57.028Z,446.00
2023-05-15T05:09:57.034Z,450.00
2023-05-15T05:10:57.009Z,455.00
2023-05-15T05:11:57.008Z,458.00
2023-05-15T05:12:56.977Z,460.00
2023-05-15T05:13:57.006Z,464.00
2023-05-15T05:14:56.993Z,465.00
2023-05-15T05:15:57.025Z,463.00
2023-05-15T05:16:56.943Z,457.00
2023-05-15T05:17:56.959Z,450.00
2023-05-15T05:18:56.940Z,443.00
2023-05-15T05:19:56.929Z,440.00
2023-05-15T05:20:56.923Z,439.00
2023-05-15T05:21:56.938Z,437.00
2023-05-15T05:22:56.918Z,436.00
2023-05-15T05:23:57.010Z,436.00
2023-05-15T05:24:56.896Z,437.00
2023-05-15T05:25:56.865Z,438.00
2023-05-15T05:26:56.831Z,440.00
2023-05-15T05:27:56.848Z,439.00
2023-05-15T05:28:56.862Z,441.00
2023-05-15T05:29:56.808Z,947.00
2023-05-15T05:30:56.805Z,363.00
2023-05-15T05:31:56.889Z,432.00
2023-05-15T05:32:56.899Z,664.00
2023-05-15T05:33:56.820Z,667.00
2023-05-15T05:34:56.745Z,416.00
2023-05-15T05:35:56.832Z,314.00
2023-05-15T05:36:56.746Z,798.00
2023-05-15T05:37:56.823Z,327.00
2023-05-15T05:38:56.706Z,414.00
2023-05-15T05:39:56.730Z,679.00
2023-05-15T05:40:56.691Z,369.00
2023-05-15T05:41:56.667Z,1086.00
2023-05-15T05:42:56.756Z,668.00
2023-05-15T05:43:56.691Z,621.00
2023-05-15T05:44:56.639Z,602.00
2023-05-15T05:45:56.649Z,627.00
2023-05-15T05:46:56.687Z,622.00
2023-05-15T05:47:56.668Z,592.00
2023-05-15T05:48:56.593Z,572.00
2023-05-15T05:49:56.612Z,565.00
2023-05-15T05:50:56.574Z,559.00
2023-05-15T05:51:56.591Z,543.00
2023-05-15T05:52:56.551Z,548.00
2023-05-15T05:53:56.567Z,577.00
2023-05-15T05:54:56.563Z,637.00
2023-05-15T05:55:56.545Z,668.00
2023-05-15T05:56:56.526Z,678.00
2023-05-15T05:57:56.518Z,647.00
2023-05-15T05:58:56.506Z,617.00
2023-05-15T05:59:56.509Z,566.00
2023-05-15T06:00:56.496Z,520.00
2023-05-15T06:01:56.569Z,494.00
2023-05-15T06:02:56.870Z,459.00
2023-05-15T06:03:56.588Z,428.00
2023-05-15T06:04:56.492Z,438.00
2023-05-15T06:05:56.429Z,426.00
2023-05-15T06:06:56.474Z,428.00
2023-05-15T06:07:56.406Z,431.00
2023-05-15T06:08:56.631Z,406.00
2023-05-15T06:09:56.397Z,427.00
2023-05-15T06:10:56.403Z,487.00
2023-05-15T06:11:56.355Z,495.00
2023-05-15T06:12:56.355Z,479.00
2023-05-15T06:13:56.344Z,521.00
2023-05-15T06:14:56.348Z,539.00
2023-05-15T06:15:56.323Z,507.00
2023-05-15T06:16:56.366Z,511.00
2023-05-15T06:17:56.334Z,573.00
2023-05-15T06:18:56.312Z,656.00
2023-05-15T06:19:56.295Z,684.00
2023-05-15T06:20:56.273Z,759.00
2023-05-15T06:21:56.245Z,772.00
2023-05-15T06:22:56.248Z,822.00
2023-05-15T06:23:56.607Z,831.00
2023-05-15T06:24:56.284Z,907.00
2023-05-15T06:25:56.221Z,945.00
2023-05-15T06:26:56.201Z,968.00
2023-05-15T06:27:56.215Z,1011.00
2023-05-15T06:28:56.204Z,1087.00
2023-05-15T06:29:56.187Z,1051.00
2023-05-15T06:30:56.192Z,951.00
2023-05-15T06:31:56.144Z,883.00
2023-05-15T06:32:56.180Z,906.00
2023-05-15T06:33:56.164Z,915.00
2023-05-15T06:34:56.125Z,891.00
2023-05-15T06:35:56.109Z,842.00
2023-05-15T06:36:56.109Z,831.00
2023-05-15T06:37:57.153Z,833.00
2023-05-15T06:38:56.102Z,851.00
2023-05-15T06:39:56.087Z,728.00
2023-05-15T06:40:56.080Z,675.00
2023-05-15T06:41:56.043Z,686.00
2023-05-15T06:42:56.116Z,666.00
2023-05-15T06:43:56.102Z,656.00
2023-05-15T06:44:56.031Z,692.00
2023-05-15T06:45:56.003Z,713.00
2023-05-15T06:46:56.133Z,716.00
2023-05-15T06:47:56.612Z,774.00
2023-05-15T06:48:55.992Z,839.00
2023-05-15T06:49:55.954Z,948.00
2023-05-15T06:50:55.992Z,1022.00
2023-05-15T06:51:56.020Z,1053.00
2023-05-15T06:52:55.975Z,1044.00
2023-05-15T06:53:55.980Z,1043.00
2023-05-15T06:54:55.925Z,1070.00
2023-05-15T06:55:55.878Z,1027.00
2023-05-15T06:56:55.898Z,993.00
2023-05-15T06:57:55.937Z,1016.00
2023-05-15T06:58:55.847Z,1098.00
2023-05-15T06:59:55.910Z,691.00
2023-05-15T07:00:56.695Z,1736.00
2023-05-15T07:01:56.021Z,1511.00
2023-05-15T07:02:55.910Z,1541.00
2023-05-15T07:03:55.800Z,1513.00
2023-05-15T07:04:55.805Z,1465.00
2023-05-15T07:05:55.823Z,1413.00
2023-05-15T07:06:55.807Z,1343.00
2023-05-15T07:07:55.793Z,1353.00
2023-05-15T07:08:55.739Z,1372.00
2023-05-15T07:09:55.772Z,1248.00
2023-05-15T07:10:55.748Z,1141.00
2023-05-15T07:11:55.736Z,989.00
2023-05-15T07:12:55.733Z,993.00
2023-05-15T07:13:55.689Z,939.00
2023-05-15T07:14:55.666Z,885.00
2023-05-15T07:15:55.723Z,795.00
2023-05-15T07:16:55.693Z,675.00
2023-05-15T07:17:55.747Z,616.00
2023-05-15T07:18:55.722Z,611.00
2023-05-15T07:19:55.630Z,595.00
2023-05-15T07:20:55.689Z,637.00
2023-05-15T07:21:55.631Z,650.00
2023-05-15T07:22:56.988Z,597.00
2023-05-15T07:23:55.631Z,600.00
2023-05-15T07:24:55.593Z,635.00
2023-05-15T07:25:55.554Z,691.00
2023-05-15T07:26:58.581Z,678.00
2023-05-15T07:27:55.600Z,669.00
2023-05-15T07:28:55.563Z,713.00
2023-05-15T07:29:55.552Z,660.00
2023-05-15T07:30:55.524Z,644.00
2023-05-15T07:31:55.677Z,645.00
2023-05-15T07:32:55.578Z,633.00
2023-05-15T07:33:55.531Z,611.00
2023-05-15T07:34:55.515Z,602.00
2023-05-15T07:35:55.439Z,586.00
2023-05-15T07:36:55.460Z,529.00
2023-05-15T07:37:55.477Z,494.00
2023-05-15T07:38:55.435Z,503.00
2023-05-15T07:39:55.462Z,496.00
2023-05-15T07:40:55.409Z,479.00
2023-05-15T07:41:55.426Z,453.00
2023-05-15T07:42:55.396Z,491.00
2023-05-15T07:43:55.394Z,526.00
2023-05-15T07:44:55.396Z,543.00
2023-05-15T07:45:55.461Z,560.00
2023-05-15T07:46:55.337Z,557.00
2023-05-15T07:47:55.403Z,580.00
2023-05-15T07:48:55.323Z,593.00
2023-05-15T07:49:55.371Z,581.00
2023-05-15T07:50:55.308Z,588.00
2023-05-15T07:51:55.301Z,618.00
2023-05-15T07:52:55.336Z,663.00
2023-05-15T07:53:55.264Z,677.00
2023-05-15T07:54:55.275Z,663.00
2023-05-15T07:55:55.319Z,603.00
2023-05-15T07:56:55.260Z,830.00
2023-05-15T07:57:55.260Z,1304.00
2023-05-15T07:58:56.168Z,1885.00
2023-05-15T07:59:55.201Z,1500.00
2023-05-15T08:00:55.220Z,1364.00
2023-05-15T08:01:55.233Z,1772.00
2023-05-15T08:02:55.281Z,1586.00
2023-05-15T08:03:55.196Z,1244.00
2023-05-15T08:04:55.147Z,1117.00
2023-05-15T08:05:55.147Z,1065.00
2023-05-15T08:06:55.126Z,1026.00
2023-05-15T08:07:55.105Z,1043.00
2023-05-15T08:08:55.114Z,1004.00
2023-05-15T08:09:55.084Z,941.00
2023-05-15T08:10:55.080Z,887.00
2023-05-15T08:11:55.101Z,935.00
2023-05-15T08:12:55.072Z,1000.00
2023-05-15T08:13:55.047Z,1003.00
2023-05-15T08:14:55.028Z,985.00
2023-05-15T08:15:55.177Z,964.00
2023-05-15T08:16:55.027Z,922.00
2023-05-15T08:17:55.031Z,870.00
2023-05-15T08:18:55.051Z,821.00
2023-05-15T08:19:54.976Z,775.00
2023-05-15T08:20:54.995Z,759.00
2023-05-15T08:21:55.005Z,735.00
2023-05-15T08:22:54.961Z,654.00
2023-05-15T08:23:54.932Z,614.00
2023-05-15T08:24:54.932Z,616.00
2023-05-15T08:25:54.967Z,593.00
2023-05-15T08:26:54.912Z,575.00
2023-05-15T08:27:54.910Z,528.00
2023-05-15T08:28:54.888Z,468.00
2023-05-15T08:29:54.886Z,433.00
2023-05-15T08:30:54.945Z,441.00
2023-05-15T08:31:54.879Z,453.00
2023-05-15T08:32:54.900Z,432.00
2023-05-15T08:33:54.832Z,425.00
2023-05-15T08:34:54.834Z,424.00
2023-05-15T08:35:54.938Z,400.00
2023-05-15T08:36:54.799Z,377.00
2023-05-15T08:37:54.797Z,389.00
2023-05-15T08:38:54.791Z,395.00
2023-05-15T08:39:54.843Z,413.00
2023-05-15T08:40:54.765Z,431.00
2023-05-15T08:41:54.741Z,419.00
2023-05-15T08:42:54.781Z,410.00
2023-05-15T08:43:54.714Z,406.00
2023-05-15T08:44:54.778Z,418.00
2023-05-15T08:45:54.703Z,423.00
2023-05-15T08:46:54.710Z,492.00
2023-05-15T08:47:54.757Z,501.00
2023-05-15T08:48:54.748Z,524.00
2023-05-15T08:49:54.652Z,532.00
2023-05-15T08:50:54.646Z,526.00
2023-05-15T08:51:54.653Z,512.00
2023-05-15T08:52:54.660Z,472.00
2023-05-15T08:53:54.624Z,439.00
2023-05-15T08:54:54.621Z,428.00
2023-05-15T08:55:54.606Z,433.00
2023-05-15T08:56:54.608Z,425.00
2023-05-15T08:57:54.632Z,410.00
2023-05-15T08:58:54.592Z,410.00
2023-05-15T08:59:54.556Z,417.00
2023-05-15T09:00:54.571Z,410.00
2023-05-15T09:01:54.579Z,394.00
2023-05-15T09:02:54.655Z,423.00
2023-05-15T09:03:54.535Z,443.00
2023-05-15T09:04:54.515Z,440.00
2023-05-15T09:05:54.501Z,478.00
2023-05-15T09:06:54.545Z,471.00
2023-05-15T09:07:54.473Z,490.00
2023-05-15T09:08:54.480Z,497.00
2023-05-15T09:09:54.461Z,489.00
2023-05-15T09:10:54.481Z,499.00
2023-05-15T09:11:54.442Z,493.00
2023-05-15T09:12:54.423Z,482.00
2023-05-15T09:13:54.402Z,485.00
2023-05-15T09:14:54.568Z,494.00
2023-05-15T09:15:54.413Z,512.00
2023-05-15T09:16:54.438Z,529.00
2023-05-15T09:17:54.439Z,542.00
2023-05-15T09:18:54.455Z,529.00
2023-05-15T09:19:54.342Z,512.00
2023-05-15T09:20:56.200Z,529.00
2023-05-15T09:21:54.333Z,536.00
2023-05-15T09:22:54.310Z,548.00
2023-05-15T09:23:54.311Z,539.00
2023-05-15T09:24:54.303Z,540.00
2023-05-15T09:25:54.290Z,480.00
2023-05-15T09:26:54.290Z,465.00
2023-05-15T09:27:54.248Z,453.00
2023-05-15T09:28:54.244Z,475.00
2023-05-15T09:29:54.227Z,458.00
2023-05-15T09:30:54.243Z,434.00
2023-05-15T09:31:54.250Z,435.00
2023-05-15T09:32:54.241Z,441.00
2023-05-15T09:33:54.192Z,493.00
2023-05-15T09:34:54.182Z,532.00
2023-05-15T09:35:54.634Z,552.00
2023-05-15T09:36:54.177Z,561.00
2023-05-15T09:37:54.151Z,587.00
2023-05-15T09:38:54.168Z,600.00
2023-05-15T09:39:54.141Z,695.00
2023-05-15T09:40:54.137Z,681.00
2023-05-15T09:41:54.142Z,650.00
2023-05-15T09:42:54.107Z,643.00
2023-05-15T09:43:54.102Z,674.00
2023-05-15T09:44:54.110Z,676.00
2023-05-15T09:45:54.140Z,664.00
2023-05-15T09:46:54.101Z,661.00
2023-05-15T09:47:54.164Z,655.00
2023-05-15T09:48:54.039Z,634.00
2023-05-15T09:49:54.180Z,602.00
2023-05-15T09:50:54.019Z,573.00
2023-05-15T09:51:54.001Z,549.00
2023-05-15T09:52:53.994Z,556.00
2023-05-15T09:53:53.989Z,529.00
2023-05-15T09:54:54.019Z,527.00
2023-05-15T09:55:53.960Z,535.00
2023-05-15T09:56:53.944Z,520.00
2023-05-15T09:57:53.941Z,502.00
2023-05-15T09:58:54.082Z,509.00
2023-05-15T09:59:53.923Z,520.00
2023-05-15T10:00:53.910Z,565.00
2023-05-15T10:01:53.951Z,626.00
2023-05-15T10:02:53.963Z,657.00
2023-05-15T10:03:53.880Z,744.00
2023-05-15T10:04:53.888Z,878.00
2023-05-15T10:05:53.883Z,879.00
2023-05-15T10:06:53.858Z,714.00
2023-05-15T10:07:53.836Z,635.00
2023-05-15T10:08:53.834Z,714.00
2023-05-15T10:09:53.820Z,728.00
2023-05-15T10:10:53.829Z,736.00
2023-05-15T10:11:53.829Z,731.00
2023-05-15T10:12:53.788Z,675.00
2023-05-15T10:13:53.810Z,666.00
2023-05-15T10:14:53.786Z,664.00
2023-05-15T10:15:53.775Z,643.00
2023-05-15T10:16:53.749Z,642.00
2023-05-15T10:17:53.821Z,627.00
2023-05-15T10:18:53.734Z,607.00
2023-05-15T10:19:58.305Z,598.00
2023-05-15T10:20:53.717Z,589.00
2023-05-15T10:21:53.698Z,566.00
2023-05-15T10:22:53.678Z,552.00
2023-05-15T10:23:53.665Z,530.00
2023-05-15T10:24:53.691Z,519.00
2023-05-15T10:25:53.641Z,528.00
2023-05-15T10:26:53.778Z,530.00
2023-05-15T10:27:53.613Z,542.00
2023-05-15T10:28:53.616Z,533.00
2023-05-15T10:29:53.642Z,543.00
2023-05-15T10:30:53.617Z,538.00
2023-05-15T10:31:53.676Z,543.00
2023-05-15T10:32:53.601Z,538.00
2023-05-15T10:33:53.534Z,517.00
2023-05-15T10:34:53.579Z,516.00
2023-05-15T10:35:53.563Z,497.00
2023-05-15T10:36:53.556Z,491.00
2023-05-15T10:37:53.525Z,479.00
2023-05-15T10:38:53.493Z,473.00
2023-05-15T10:39:53.503Z,502.00
2023-05-15T10:40:59.792Z,573.00
2023-05-15T10:41:53.465Z,620.00
2023-05-15T10:42:53.459Z,665.00
2023-05-15T10:43:53.454Z,722.00
2023-05-15T10:44:53.450Z,743.00
2023-05-15T10:45:53.616Z,784.00
2023-05-15T10:46:53.427Z,839.00
2023-05-15T10:47:53.481Z,855.00
2023-05-15T10:48:53.398Z,892.00
2023-05-15T10:49:53.390Z,811.00
2023-05-15T10:50:53.411Z,878.00
2023-05-15T10:51:53.356Z,856.00
2023-05-15T10:52:53.363Z,898.00
2023-05-15T10:53:53.338Z,909.00
2023-05-15T10:54:53.339Z,912.00
2023-05-15T10:55:53.345Z,1106.00
2023-05-15T10:56:53.350Z,1153.00
2023-05-15T10:57:53.402Z,1210.00
2023-05-15T10:58:53.416Z,1216.00
2023-05-15T10:59:53.312Z,1260.00
2023-05-15T11:00:53.658Z,1267.00
2023-05-15T11:01:53.237Z,1223.00
2023-05-15T11:02:53.344Z,1229.00
2023-05-15T11:03:55.244Z,1229.00
2023-05-15T11:04:53.322Z,1236.00
2023-05-15T11:05:53.226Z,1233.00
2023-05-15T11:06:53.190Z,1232.00
2023-05-15T11:07:53.191Z,1291.00
2023-05-15T11:08:53.219Z,1208.00
2023-05-15T11:09:53.178Z,1197.00
2023-05-15T11:10:53.154Z,1274.00
2023-05-15T11:11:53.162Z,1319.00
2023-05-15T11:12:53.162Z,1349.00
2023-05-15T11:13:53.130Z,1413.00
2023-05-15T11:14:53.106Z,1439.00
2023-05-15T11:15:53.095Z,1460.00
2023-05-15T11:16:53.418Z,1475.00
2023-05-15T11:17:53.107Z,1404.00
2023-05-15T11:18:53.113Z,1289.00
2023-05-15T11:19:53.113Z,1277.00
2023-05-15T11:20:53.051Z,1370.00
2023-05-15T11:21:53.022Z,1278.00
2023-05-15T11:22:53.042Z,1184.00
2023-05-15T11:23:53.014Z,1183.00
2023-05-15T11:24:52.992Z,1215.00
2023-05-15T11:25:52.979Z,1235.00
2023-05-15T11:26:53.002Z,1302.00
2023-05-15T11:27:52.998Z,1245.00
2023-05-15T11:28:53.144Z,1463.00
2023-05-15T11:29:52.973Z,1417.00
2023-05-15T11:30:52.976Z,1985.00
2023-05-15T11:31:52.951Z,1889.00
2023-05-15T11:32:52.995Z,2117.00
2023-05-15T11:33:52.894Z,1259.00
2023-05-15T11:34:52.896Z,1562.00
2023-05-15T11:35:52.902Z,6766.00
2023-05-15T11:36:52.919Z,2578.00
2023-05-15T11:37:52.878Z,2545.00
2023-05-15T11:38:52.902Z,2549.00
2023-05-15T11:39:52.836Z,2446.00
2023-05-15T11:40:52.956Z,2319.00
2023-05-15T11:41:52.885Z,2398.00
2023-05-15T11:42:52.834Z,2134.00
2023-05-15T11:43:52.825Z,2201.00
2023-05-15T11:44:52.796Z,2263.00
2023-05-15T11:45:52.783Z,2491.00
2023-05-15T11:46:52.804Z,2542.00
2023-05-15T11:47:52.858Z,2764.00
2023-05-15T11:48:52.813Z,1863.00
2023-05-15T11:49:52.749Z,4036.00
2023-05-15T11:50:52.751Z,2573.00
2023-05-15T11:51:52.718Z,2564.00
2023-05-15T11:52:52.700Z,3140.00
2023-05-15T11:53:52.707Z,1153.00
2023-05-15T11:54:52.695Z,2289.00
2023-05-15T11:55:52.716Z,1791.00
2023-05-15T11:56:52.685Z,1692.00
2023-05-15T11:57:52.648Z,1525.00
2023-05-15T11:58:52.665Z,2032.00
2023-05-15T11:59:52.648Z,1172.00
2023-05-15T12:00:52.628Z,1720.00
2023-05-15T12:01:52.681Z,1137.00
2023-05-15T12:02:52.663Z,3089.00
2023-05-15T12:03:52.758Z,1858.00
2023-05-15T12:04:52.797Z,1225.00
2023-05-15T12:05:59.159Z,3041.00
2023-05-15T12:06:52.557Z,3186.00
2023-05-15T12:07:52.556Z,3772.00
2023-05-15T12:08:52.670Z,1719.00
2023-05-15T12:09:52.564Z,5263.00
2023-05-15T12:10:52.510Z,2220.00
2023-05-15T12:11:52.522Z,2262.00
2023-05-15T12:12:52.513Z,1974.00
2023-05-15T12:13:52.504Z,2887.00
2023-05-15T12:14:52.478Z,2214.00
2023-05-15T12:15:52.504Z,2459.00
2023-05-15T12:16:52.509Z,2142.00
2023-05-15T12:17:52.488Z,2735.00
2023-05-15T12:18:52.591Z,3340.00
2023-05-15T12:19:52.426Z,3080.00
2023-05-15T12:20:52.423Z,2256.00
2023-05-15T12:21:52.403Z,3622.00
2023-05-15T12:22:52.405Z,2788.00
2023-05-15T12:24:03.523Z,2862.00
2023-05-15T12:24:52.393Z,4723.00
2023-05-15T12:25:52.391Z,4088.00
2023-05-15T12:26:52.350Z,4467.00
2023-05-15T12:27:52.376Z,2875.00
2023-05-15T12:28:52.331Z,3229.00
2023-05-15T12:29:52.319Z,2213.00
2023-05-15T12:30:52.323Z,4915.00
2023-05-15T12:31:52.395Z,5918.00
2023-05-15T12:32:52.331Z,3252.00
2023-05-15T12:33:52.287Z,4298.00
2023-05-15T12:34:52.292Z,4330.00
2023-05-15T12:35:52.288Z,5760.00
2023-05-15T12:36:52.263Z,4563.00
2023-05-15T12:37:52.277Z,2248.00